Big Bear Station Historical Data
Daily Summary for April 9, 2017 Units:  English    Metric   Both
« Previous Day
Next Day »
Daily Weekly Monthly Yearly Custom
  High: Low: Average:
Temperature: 56.7 °F 25.0 °F 37.7 °F
Dew Point: 28.1 °F 17.0 °F 22.2 °F
Humidity: 88 % 29 % 57 %
Wind Speed: 5.8 mph 0.0 mph 2 mph
Wind Gust: -999.0 mph - -
Wind:- - WSW
Pressure: 30.16 in 30.04 in -
Precipitation: 0.00 in    
Historical Graphs
 
 
Tabular Data for April 9, 2017
Time Temperature Dew Point Pressure Wind Wind Speed Wind Gust Humidity Rainfall Rate (Hourly)
00:04 30.4 °F 27.3 °F 30.05 in SSE 1.1 mph -999.0 mph 88 % 0 in
00:19 29.5 °F 25.8 °F 30.05 in Calm   -999.0 mph 86 % 0 in
00:34 28.6 °F 25.2 °F 30.05 in SSE 3.2 mph -999.0 mph 87 % 0 in
00:49 28.8 °F 24.9 °F 30.04 in East 3.2 mph -999.0 mph 85 % 0 in
01:04 29.1 °F 24.6 °F 30.05 in SE 2.7 mph -999.0 mph 83 % 0 in
01:20 28.4 °F 21.5 °F 30.05 in South 2.7 mph -999.0 mph 75 % 0 in
01:35 28.4 °F 20.2 °F 30.05 in Calm   -999.0 mph 71 % 0 in
01:50 27.7 °F 21.7 °F 30.05 in Calm   -999.0 mph 78 % 0 in
02:05 26.8 °F 21.2 °F 30.05 in Calm   -999.0 mph 79 % 0 in
02:20 26.2 °F 20.3 °F 30.05 in Calm   -999.0 mph 78 % 0 in
02:36 26.4 °F 21.4 °F 30.05 in South 2.2 mph -999.0 mph 81 % 0 in
02:51 26.1 °F 21.6 °F 30.06 in South 1.7 mph -999.0 mph 83 % 0 in
03:06 25.9 °F 21.2 °F 30.06 in SSE 1.1 mph -999.0 mph 82 % 0 in
03:21 25.3 °F 20.9 °F 30.05 in Calm   -999.0 mph 83 % 0 in
03:37 25.9 °F 21.4 °F 30.05 in South 1.1 mph -999.0 mph 83 % 0 in
03:52 25.7 °F 21.5 °F 30.05 in South 2.2 mph -999.0 mph 84 % 0 in
04:07 25.5 °F 20.5 °F 30.06 in SSE 1.7 mph -999.0 mph 81 % 0 in
04:22 25.5 °F 20.2 °F 30.06 in South 2.7 mph -999.0 mph 80 % 0 in
04:37 25.3 °F 19.4 °F 30.06 in SSW 1.1 mph -999.0 mph 78 % 0 in
04:53 25.7 °F 20.4 °F 30.06 in South 1.7 mph -999.0 mph 80 % 0 in
05:08 25.3 °F 20.0 °F 30.06 in Calm   -999.0 mph 80 % 0 in
05:23 25.9 °F 20.0 °F 30.06 in South 1.7 mph -999.0 mph 78 % 0 in
05:38 25.5 °F 19.9 °F 30.06 in SSE 2.2 mph -999.0 mph 79 % 0 in
05:53 25.3 °F 20.0 °F 30.06 in South 1.7 mph -999.0 mph 80 % 0 in
06:09 25.0 °F 19.7 °F 30.06 in Calm   -999.0 mph 80 % 0 in
06:24 25.0 °F 20.0 °F 30.07 in Calm   -999.0 mph 81 % 0 in
06:39 25.9 °F 20.9 °F 30.07 in Calm   -999.0 mph 81 % 0 in
06:54 26.4 °F 21.1 °F 30.07 in Calm   -999.0 mph 80 % 0 in
07:10 27.0 °F 21.1 °F 30.08 in Calm   -999.0 mph 78 % 0 in
07:26 28.0 °F 21.1 °F 30.08 in Calm   -999.0 mph 75 % 0 in
07:41 28.6 °F 22.0 °F 30.08 in Calm   -999.0 mph 76 % 0 in
07:56 30.6 °F 22.6 °F 30.09 in Calm   -999.0 mph 72 % 0 in
08:11 32.4 °F 20.8 °F 30.10 in Calm   -999.0 mph 62 % 0 in
08:26 32.7 °F 17.0 °F 30.10 in Calm   -999.0 mph 52 % 0 in
08:42 35.1 °F 18.3 °F 30.11 in North 1.7 mph -999.0 mph 50 % 0 in
08:57 36.1 °F 17.8 °F 30.11 in NNW 2.2 mph -999.0 mph 47 % 0 in
09:12 37.6 °F 18.2 °F 30.11 in NW 1.7 mph -999.0 mph 45 % 0 in
09:27 38.3 °F 17.2 °F 30.11 in NNW 1.1 mph -999.0 mph 42 % 0 in
09:42 40.1 °F 17.7 °F 30.11 in SSE 2.7 mph -999.0 mph 40 % 0 in
09:58 41.0 °F 17.9 °F 30.11 in West 1.1 mph -999.0 mph 39 % 0 in
10:13 42.3 °F 18.5 °F 30.12 in NNE 2.2 mph -999.0 mph 38 % 0 in
10:28 42.6 °F 19.4 °F 30.12 in NNE 2.2 mph -999.0 mph 39 % 0 in
10:43 43.2 °F 21.1 °F 30.11 in NW 3.7 mph -999.0 mph 41 % 0 in
10:59 43.3 °F 20.6 °F 30.12 in NNW 2.7 mph -999.0 mph 40 % 0 in
11:15 45.0 °F 21.5 °F 30.12 in NNW 2.2 mph -999.0 mph 39 % 0 in
11:30 45.5 °F 21.3 °F 30.12 in NW 3.2 mph -999.0 mph 38 % 0 in
11:45 45.9 °F 20.4 °F 30.12 in North 2.7 mph -999.0 mph 36 % 0 in
12:00 45.9 °F 21.1 °F 30.12 in NW 3.7 mph -999.0 mph 37 % 0 in
12:16 46.4 °F 19.5 °F 30.12 in NW 2.7 mph -999.0 mph 34 % 0 in
12:31 48.0 °F 22.9 °F 30.12 in NW 3.7 mph -999.0 mph 37 % 0 in
12:46 47.8 °F 22.1 °F 30.12 in WSW 2.2 mph -999.0 mph 36 % 0 in
13:01 51.6 °F 24.8 °F 30.12 in WNW 3.7 mph -999.0 mph 35 % 0 in
13:17 51.6 °F 27.4 °F 30.12 in NW 4.7 mph -999.0 mph 39 % 0 in
13:32 52.2 °F 27.3 °F 30.11 in NW 4.7 mph -999.0 mph 38 % 0 in
13:47 52.3 °F 28.1 °F 30.11 in NW 4.7 mph -999.0 mph 39 % 0 in
14:03 52.5 °F 27.0 °F 30.11 in NW 5.8 mph -999.0 mph 37 % 0 in
14:18 52.9 °F 26.0 °F 30.11 in NNW 3.7 mph -999.0 mph 35 % 0 in
14:34 53.4 °F 27.1 °F 30.11 in North 4.7 mph -999.0 mph 36 % 0 in
14:49 52.7 °F 26.5 °F 30.11 in NNW 5.3 mph -999.0 mph 36 % 0 in
15:04 53.6 °F 25.2 °F 30.10 in WNW 4.7 mph -999.0 mph 33 % 0 in
15:20 52.3 °F 26.1 °F 30.11 in NNW 3.2 mph -999.0 mph 36 % 0 in
15:35 53.1 °F 26.8 °F 30.10 in NW 4.7 mph -999.0 mph 36 % 0 in
15:51 51.4 °F 24.6 °F 30.10 in West 3.2 mph -999.0 mph 35 % 0 in
16:06 50.7 °F 24.7 °F 30.11 in NW 4.2 mph -999.0 mph 36 % 0 in
16:22 51.3 °F 25.2 °F 30.11 in NNW 4.7 mph -999.0 mph 36 % 0 in
16:37 52.3 °F 23.3 °F 30.11 in NNW 3.2 mph -999.0 mph 32 % 0 in
16:52 53.4 °F 25.7 °F 30.11 in NW 4.2 mph -999.0 mph 34 % 0 in
17:07 55.4 °F 24.5 °F 30.11 in SE 1.7 mph -999.0 mph 30 % 0 in
17:23 56.7 °F 24.8 °F 30.11 in NNW 3.7 mph -999.0 mph 29 % 0 in
17:38 55.6 °F 24.6 °F 30.11 in WNW 2.7 mph -999.0 mph 30 % 0 in
17:53 54.7 °F 23.9 °F 30.11 in North 3.2 mph -999.0 mph 30 % 0 in
18:09 52.7 °F 22.1 °F 30.11 in NNW 2.7 mph -999.0 mph 30 % 0 in
18:24 49.5 °F 24.3 °F 30.11 in WNW 3.7 mph -999.0 mph 37 % 0 in
18:39 46.8 °F 25.5 °F 30.11 in NW 2.7 mph -999.0 mph 43 % 0 in
18:54 44.8 °F 23.1 °F 30.11 in NW 2.7 mph -999.0 mph 42 % 0 in
19:09 43.3 °F 22.8 °F 30.11 in Calm   -999.0 mph 44 % 0 in
19:25 40.8 °F 22.6 °F 30.11 in Calm   -999.0 mph 48 % 0 in
19:40 39.0 °F 24.2 °F 30.11 in SSE 1.7 mph -999.0 mph 55 % 0 in
19:55 38.1 °F 24.6 °F 30.13 in Calm   -999.0 mph 58 % 0 in
20:10 37.2 °F 25.0 °F 30.13 in SSW 1.7 mph -999.0 mph 61 % 0 in
20:25 36.7 °F 23.7 °F 30.13 in South 1.7 mph -999.0 mph 59 % 0 in
20:41 35.4 °F 24.1 °F 30.13 in Calm   -999.0 mph 63 % 0 in
20:56 34.5 °F 23.6 °F 30.15 in South 1.7 mph -999.0 mph 64 % 0 in
21:11 34.0 °F 23.5 °F 30.15 in SSE 1.7 mph -999.0 mph 65 % 0 in
21:27 33.3 °F 22.8 °F 30.15 in Calm   -999.0 mph 65 % 0 in
21:42 32.5 °F 22.4 °F 30.16 in SSE 1.7 mph -999.0 mph 66 % 0 in
21:57 32.0 °F 21.9 °F 30.16 in SE 1.7 mph -999.0 mph 66 % 0 in
22:12 31.6 °F 21.9 °F 30.16 in Calm   -999.0 mph 67 % 0 in
22:27 31.1 °F 21.1 °F 30.16 in South 1.7 mph -999.0 mph 66 % 0 in
22:43 30.7 °F 20.7 °F 30.16 in SSE 1.7 mph -999.0 mph 66 % 0 in
22:58 30.4 °F 20.4 °F 30.15 in Calm   -999.0 mph 66 % 0 in
23:13 29.7 °F 19.7 °F 30.15 in South 1.7 mph -999.0 mph 66 % 0 in
23:28 29.1 °F 17.3 °F 30.15 in SSE 1.1 mph -999.0 mph 61 % 0 in
23:44 29.1 °F 18.4 °F 30.15 in SSE 1.1 mph -999.0 mph 64 % 0 in
23:59 28.8 °F 18.5 °F 30.16 in South 2.2 mph -999.0 mph 65 % 0 in
Big Bear CA Weather
Compliments of Weather Underground - 1.5 mb